Time;durP1;ratioP1;P1;durP2;ratioP2;P2;SDS_P1;SDS_P2;PMS_P1;PMS_P2;Temp;Humidity;BMP_temperature;BMP_pressure;BME280_temperature;BME280_humidity;BME280_pressure;Samples;Min_cycle;Max_cycle;Signal;HPM_P1;HPM_P2
2023/06/16 00:01:59;;;;;;;10.40;4.93;;;19.70;1.00;;;;;;5073503;28;20263;-64
2023/06/16 00:04:28;;;;;;;6.30;4.43;;;19.70;1.00;;;;;;5072819;28;20176;-63
2023/06/16 00:06:54;;;;;;;7.88;4.82;;;19.70;99.90;;;;;;5073135;28;20199;-64
2023/06/16 00:09:25;;;;;;;14.88;5.03;;;19.60;92.40;;;;;;5073039;28;20204;-64
2023/06/16 00:11:51;;;;;;;13.38;4.75;;;19.60;99.90;;;;;;5073183;28;20169;-64
2023/06/16 00:14:17;;;;;;;9.80;4.85;;;19.70;1.00;;;;;;5072687;28;20208;-64
2023/06/16 00:16:43;;;;;;;16.05;4.63;;;19.70;1.00;;;;;;5073140;28;20615;-63
2023/06/16 00:19:08;;;;;;;8.30;4.93;;;19.60;1.00;;;;;;5072897;28;20188;-63
2023/06/16 00:21:38;;;;;;;15.02;5.20;;;19.60;99.90;;;;;;5073006;28;20167;-63
2023/06/16 00:24:08;;;;;;;8.27;4.95;;;19.60;1.00;;;;;;5072977;28;20160;-62
2023/06/16 00:26:34;;;;;;;10.82;5.20;;;19.60;1.00;;;;;;5072981;28;20165;-63
2023/06/16 00:29:01;;;;;;;13.60;5.13;;;19.50;1.00;;;;;;5072869;28;20211;-64
2023/06/16 00:31:27;;;;;;;11.68;5.13;;;19.50;84.10;;;;;;5072497;28;20334;-63
2023/06/16 00:33:53;;;;;;;13.70;5.38;;;19.50;99.90;;;;;;5073113;28;20713;-63
2023/06/16 00:36:19;;;;;;;11.68;5.20;;;19.50;99.90;;;;;;5072657;28;20219;-62
2023/06/16 00:38:45;;;;;;;9.32;5.00;;;19.60;99.90;;;;;;5072923;28;20164;-63
2023/06/16 00:41:11;;;;;;;8.43;4.90;;;19.50;99.90;;;;;;5072788;28;20172;-63
2023/06/16 00:43:37;;;;;;;8.65;5.10;;;19.50;99.90;;;;;;5072605;28;20173;-62
2023/06/16 00:46:02;;;;;;;5.53;4.47;;;19.60;99.90;;;;;;5072482;28;20168;-63
2023/06/16 00:48:28;;;;;;;6.05;5.20;;;19.70;82.70;;;;;;5073039;28;20180;-62
2023/06/16 00:50:55;;;;;;;5.80;5.00;;;19.70;1.00;;;;;;5075149;28;20642;-62
2023/06/16 00:53:21;;;;;;;7.18;4.82;;;19.70;79.70;;;;;;5076653;28;20204;-62
2023/06/16 00:55:47;;;;;;;5.03;4.60;;;19.60;99.90;;;;;;5076635;28;20168;-63
2023/06/16 00:58:14;;;;;;;12.60;4.93;;;19.60;99.90;;;;;;5076588;28;20255;-64
2023/06/16 01:00:40;;;;;;;5.15;4.75;;;19.50;99.90;;;;;;5076126;28;20164;-63
2023/06/16 01:03:08;;;;;;;7.15;4.95;;;19.50;99.90;;;;;;5076398;28;20194;-63
2023/06/16 01:05:34;;;;;;;6.68;4.38;;;19.40;1.00;;;;;;5076491;28;20172;-63
2023/06/16 01:08:39;;;;;;;10.15;4.88;;;19.40;1.00;;;;;;5076305;28;20172;-63
2023/06/16 01:11:14;;;;;;;8.95;5.07;;;19.40;1.00;;;;;;5045905;28;20565;-62
2023/06/16 01:13:42;;;;;;;6.45;5.18;;;19.30;1.00;;;;;;5076329;28;20215;-62
2023/06/16 01:16:10;;;;;;;5.25;4.85;;;19.30;99.90;;;;;;5075995;28;20210;-64
2023/06/16 01:18:43;;;;;;;5.10;4.70;;;19.30;99.90;;;;;;5076285;28;20200;-63
2023/06/16 01:21:43;;;;;;;6.68;5.53;;;19.30;99.90;;;;;;5076214;28;20169;-64
2023/06/16 01:24:23;;;;;;;6.97;5.47;;;19.20;99.90;;;;;;5058184;28;20628;-63
2023/06/16 01:26:52;;;;;;;5.78;4.97;;;19.10;1.00;;;;;;5076224;28;20175;-63
2023/06/16 01:29:22;;;;;;;8.57;5.80;;;19.00;1.00;;;;;;5075987;28;20267;-63
2023/06/16 01:31:50;;;;;;;8.18;5.57;;;18.90;1.00;;;;;;5075924;28;20223;-62
2023/06/16 01:34:18;;;;;;;8.05;5.18;;;18.90;1.00;;;;;;5075478;28;20695;-62
2023/06/16 01:36:44;;;;;;;9.55;5.13;;;18.90;1.00;;;;;;5075694;28;20216;-62
2023/06/16 01:39:13;;;;;;;7.80;5.82;;;18.90;1.00;;;;;;5075915;28;20659;-62
2023/06/16 01:41:39;;;;;;;6.75;5.90;;;18.80;1.00;;;;;;5075768;28;20168;-62
2023/06/16 01:44:06;;;;;;;5.97;5.38;;;18.80;1.00;;;;;;5075333;28;20168;-62
2023/06/16 01:46:32;;;;;;;9.13;5.65;;;18.80;1.00;;;;;;5075781;28;20180;-63
2023/06/16 01:48:58;;;;;;;7.00;5.70;;;18.80;1.00;;;;;;5075600;28;20187;-63
2023/06/16 01:51:25;;;;;;;9.07;5.65;;;18.80;1.00;;;;;;5075659;28;20199;-63
2023/06/16 01:53:54;;;;;;;6.18;5.57;;;18.70;1.00;;;;;;5075606;28;20208;-62
2023/06/16 01:56:20;;;;;;;7.38;5.63;;;18.60;1.00;;;;;;5075439;28;20259;-63
2023/06/16 01:58:46;;;;;;;6.97;5.93;;;18.60;1.00;;;;;;5075013;28;20517;-63
2023/06/16 02:01:20;;;;;;;7.43;6.05;;;18.50;1.00;;;;;;5074640;28;20160;-62
2023/06/16 02:04:00;;;;;;;9.07;6.28;;;18.50;1.00;;;;;;5075172;28;20179;-63
2023/06/16 02:06:43;;;;;;;11.50;6.03;;;18.40;1.00;;;;;;5075380;28;20192;-62
2023/06/16 02:09:12;;;;;;;10.23;6.10;;;18.40;1.00;;;;;;5075317;28;20211;-63
2023/06/16 02:11:39;;;;;;;6.73;5.97;;;18.40;1.00;;;;;;5075146;28;20161;-63
2023/06/16 02:14:05;;;;;;;6.78;6.00;;;18.30;1.00;;;;;;5074589;28;20254;-63
2023/06/16 02:16:44;;;;;;;6.87;5.73;;;18.30;1.00;;;;;;5075127;28;20173;-63
2023/06/16 02:19:11;;;;;;;10.60;6.27;;;18.30;1.00;;;;;;5075000;28;20172;-63
2023/06/16 02:21:37;;;;;;;6.23;5.63;;;18.30;1.00;;;;;;5075071;28;20183;-63
2023/06/16 02:24:04;;;;;;;6.90;5.50;;;18.30;1.00;;;;;;5074935;28;20628;-63
2023/06/16 02:26:30;;;;;;;7.88;6.05;;;18.20;1.00;;;;;;5074932;28;20242;-63
2023/06/16 02:28:56;;;;;;;7.47;6.60;;;18.20;1.00;;;;;;5074317;28;20219;-63
2023/06/16 02:31:21;;;;;;;8.93;6.05;;;18.10;1.00;;;;;;5074707;28;20220;-63
2023/06/16 02:33:51;;;;;;;7.13;6.18;;;18.20;1.00;;;;;;5074343;28;20219;-62
2023/06/16 02:36:17;;;;;;;7.82;6.55;;;18.10;1.00;;;;;;5074219;28;20227;-62
2023/06/16 02:38:43;;;;;;;6.95;6.28;;;18.10;1.00;;;;;;5074565;28;20180;-63
2023/06/16 02:41:09;;;;;;;8.25;6.07;;;18.10;1.00;;;;;;5074262;28;20173;-63
2023/06/16 02:43:35;;;;;;;7.00;6.32;;;18.00;1.00;;;;;;5074039;28;20165;-63
2023/06/16 02:46:01;;;;;;;9.60;6.68;;;17.90;1.00;;;;;;5074324;28;20221;-63
2023/06/16 02:48:27;;;;;;;7.78;6.05;;;17.90;1.00;;;;;;5074178;28;20173;-63
2023/06/16 02:50:53;;;;;;;10.97;7.13;;;17.90;1.00;;;;;;5074286;28;20173;-63
2023/06/16 02:53:19;;;;;;;15.03;6.70;;;17.90;1.00;;;;;;5074063;28;20204;-62
2023/06/16 02:55:46;;;;;;;9.43;6.20;;;17.80;1.00;;;;;;5074140;28;20164;-63
2023/06/16 02:58:12;;;;;;;8.30;6.30;;;17.80;1.00;;;;;;5073569;28;20173;-62
2023/06/16 03:00:38;;;;;;;7.00;6.00;;;17.80;1.00;;;;;;5074082;28;20169;-62
2023/06/16 03:03:05;;;;;;;7.27;5.97;;;17.80;1.00;;;;;;5073981;28;20717;-62
2023/06/16 03:05:31;;;;;;;9.00;6.25;;;17.80;1.00;;;;;;5073999;28;20164;-62
2023/06/16 03:07:57;;;;;;;9.20;6.40;;;17.80;1.00;;;;;;5074016;28;20222;-62
2023/06/16 03:10:23;;;;;;;9.00;6.90;;;17.80;1.00;;;;;;5074022;28;20636;-63
2023/06/16 03:12:49;;;;;;;11.17;6.33;;;17.80;1.00;;;;;;5073096;28;20248;-63
2023/06/16 03:15:15;;;;;;;12.02;6.95;;;17.70;1.00;;;;;;5073581;28;20608;-62
2023/06/16 03:17:42;;;;;;;10.73;6.93;;;17.70;1.00;;;;;;5073547;28;20161;-63
2023/06/16 03:20:09;;;;;;;9.95;6.20;;;17.70;1.00;;;;;;5073399;28;20171;-62
2023/06/16 03:22:35;;;;;;;13.43;6.38;;;17.80;1.00;;;;;;5073696;28;20218;-62
2023/06/16 03:25:02;;;;;;;12.60;7.57;;;17.80;1.00;;;;;;5073383;28;20176;-63
2023/06/16 03:27:28;;;;;;;13.05;8.02;;;17.80;1.00;;;;;;5073312;28;20165;-63
2023/06/16 03:29:54;;;;;;;13.57;6.65;;;17.80;1.00;;;;;;5073355;28;20184;-63
2023/06/16 03:32:19;;;;;;;8.67;6.97;;;17.70;1.00;;;;;;5073503;28;20204;-63
2023/06/16 03:34:46;;;;;;;10.50;6.60;;;17.70;1.00;;;;;;5073178;28;20207;-63
2023/06/16 03:37:12;;;;;;;7.67;6.17;;;17.70;1.00;;;;;;5072992;28;20215;-63
2023/06/16 03:39:38;;;;;;;9.90;6.83;;;17.60;1.00;;;;;;5073540;28;20177;-62
2023/06/16 03:42:03;;;;;;;8.57;6.93;;;17.60;1.00;;;;;;5072765;28;20187;-63
2023/06/16 03:44:29;;;;;;;10.03;6.77;;;17.60;1.00;;;;;;5073468;28;20519;-63
2023/06/16 03:46:55;;;;;;;8.40;7.53;;;17.60;1.00;;;;;;5072867;28;20177;-63
2023/06/16 03:49:21;;;;;;;12.97;7.60;;;17.60;1.00;;;;;;5073032;28;20538;-62
2023/06/16 03:51:46;;;;;;;11.83;7.03;;;17.80;1.00;;;;;;5072813;28;20179;-63
2023/06/16 03:54:12;;;;;;;11.57;7.68;;;18.00;1.00;;;;;;5072745;28;20539;-62
2023/06/16 03:56:38;;;;;;;9.15;6.65;;;18.30;1.00;;;;;;5072658;28;20169;-62
2023/06/16 03:59:04;;;;;;;10.88;6.82;;;18.60;1.00;;;;;;5072954;28;20180;-63
2023/06/16 04:01:30;;;;;;;12.20;7.60;;;18.90;1.00;;;;;;5072801;28;20252;-63
2023/06/16 04:03:56;;;;;;;9.13;7.30;;;19.00;1.00;;;;;;5072664;28;20568;-64
2023/06/16 04:06:21;;;;;;;8.93;7.22;;;19.20;1.00;;;;;;5072833;28;20173;-64
2023/06/16 04:08:47;;;;;;;9.32;7.15;;;19.50;1.00;;;;;;5072726;28;20173;-64
2023/06/16 04:11:14;;;;;;;9.57;7.20;;;19.80;1.00;;;;;;5072118;28;20204;-63
2023/06/16 04:13:40;;;;;;;16.73;8.15;;;19.50;1.00;;;;;;5072774;28;20204;-63
2023/06/16 04:16:06;;;;;;;10.20;6.95;;;19.40;1.00;;;;;;5072877;28;20175;-63
2023/06/16 04:18:31;;;;;;;9.35;7.00;;;19.60;1.00;;;;;;5072793;28;20172;-64
2023/06/16 04:20:57;;;;;;;8.27;7.13;;;20.20;1.00;;;;;;5072559;28;20261;-64
2023/06/16 04:23:23;;;;;;;9.52;6.72;;;20.90;1.00;;;;;;5072158;28;20168;-63
2023/06/16 04:25:48;;;;;;;11.25;6.80;;;21.30;1.00;;;;;;5074995;28;20507;-64
2023/06/16 04:28:14;;;;;;;11.95;7.30;;;21.60;99.90;;;;;;5076783;28;20177;-63
2023/06/16 04:30:43;;;;;;;9.77;7.38;;;21.60;90.10;;;;;;5076585;28;20687;-64
2023/06/16 04:33:09;;;;;;;8.88;6.97;;;21.50;99.90;;;;;;5058460;28;20216;-64
2023/06/16 04:35:35;;;;;;;8.63;7.35;;;21.50;99.90;;;;;;5076284;28;20172;-64
2023/06/16 04:38:01;;;;;;;9.93;6.63;;;21.40;99.90;;;;;;5076269;28;20173;-64
2023/06/16 04:40:27;;;;;;;8.88;7.55;;;21.20;99.90;;;;;;5076703;28;20218;-64
2023/06/16 04:42:53;;;;;;;12.90;6.45;;;21.40;73.20;;;;;;5076211;28;20261;-64
2023/06/16 04:45:20;;;;;;;13.70;6.72;;;21.60;1.00;;;;;;5076315;28;20636;-64
2023/06/16 04:47:46;;;;;;;12.60;7.32;;;21.70;1.00;;;;;;5076357;28;20157;-64
2023/06/16 04:50:15;;;;;;;8.70;6.45;;;22.30;1.00;;;;;;5076176;28;20212;-65
2023/06/16 04:52:40;;;;;;;10.15;7.28;;;22.90;99.90;;;;;;5075916;28;20267;-63
2023/06/16 04:55:07;;;;;;;11.80;7.03;;;22.80;1.00;;;;;;5075777;28;20296;-63
2023/06/16 04:57:34;;;;;;;20.90;7.90;;;22.20;1.00;;;;;;5075621;28;20177;-63
2023/06/16 05:00:02;;;;;;;10.77;7.45;;;21.90;1.00;;;;;;5076007;28;20218;-64
2023/06/16 05:02:28;;;;;;;11.10;7.85;;;22.10;99.90;;;;;;5075820;28;20181;-64
2023/06/16 05:04:54;;;;;;;10.68;7.60;;;22.00;1.00;;;;;;5075415;28;20259;-64
2023/06/16 05:07:19;;;;;;;9.10;7.63;;;21.60;99.90;;;;;;5075413;28;20623;-65
2023/06/16 05:09:45;;;;;;;12.60;7.75;;;21.50;99.90;;;;;;5075438;28;20168;-65
2023/06/16 05:12:11;;;;;;;12.57;7.30;;;22.20;1.00;;;;;;5075487;28;20662;-64
2023/06/16 05:14:37;;;;;;;12.48;7.88;;;23.00;1.00;;;;;;5075526;28;20211;-64
2023/06/16 05:17:02;;;;;;;8.88;7.45;;;24.00;1.00;;;;;;5075497;28;20238;-65
2023/06/16 05:19:29;;;;;;;9.10;8.10;;;25.00;86.50;;;;;;5075495;28;20177;-65
2023/06/16 05:21:55;;;;;;;13.07;8.35;;;25.70;99.90;;;;;;5075112;28;20179;-65
2023/06/16 05:24:20;;;;;;;11.57;8.10;;;25.70;99.90;;;;;;5075669;28;20169;-65
2023/06/16 05:26:46;;;;;;;12.95;7.45;;;25.10;99.90;;;;;;5075532;28;20245;-64
2023/06/16 05:29:11;;;;;;;10.25;7.65;;;24.80;1.00;;;;;;5075304;28;20177;-64
2023/06/16 05:31:37;;;;;;;12.23;8.07;;;24.80;15.60;;;;;;5074839;28;20546;-66
2023/06/16 05:34:03;;;;;;;16.77;8.63;;;25.60;99.90;;;;;;5074764;28;20200;-66
2023/06/16 05:36:30;;;;;;;22.15;8.98;;;26.40;1.00;;;;;;5073966;28;20216;-65
2023/06/16 05:38:56;;;;;;;21.63;8.52;;;27.00;1.00;;;;;;5075069;28;20181;-66
2023/06/16 05:41:24;;;;;;;18.23;8.82;;;27.40;1.00;;;;;;5074326;28;20550;-65
2023/06/16 05:43:54;;;;;;;17.17;8.75;;;27.40;1.00;;;;;;5075122;28;20172;-65
2023/06/16 05:46:20;;;;;;;19.95;9.32;;;26.70;1.00;;;;;;5074657;28;20263;-64
2023/06/16 05:48:46;;;;;;;18.60;9.25;;;26.00;1.00;;;;;;5074435;28;20663;-66
2023/06/16 05:51:12;;;;;;;15.60;9.23;;;26.30;1.00;;;;;;5074348;28;20263;-66
2023/06/16 05:53:37;;;;;;;34.42;9.73;;;27.10;1.00;;;;;;5074219;28;20287;-66
2023/06/16 05:56:03;;;;;;;25.08;8.93;;;27.60;1.00;;;;;;5074332;28;20169;-66
2023/06/16 05:58:29;;;;;;;30.92;9.43;;;28.80;99.90;;;;;;5073919;28;20202;-66
2023/06/16 06:00:54;;;;;;;28.92;9.43;;;28.80;99.90;;;;;;5074405;28;20181;-65
2023/06/16 06:03:20;;;;;;;45.03;9.77;;;29.00;99.90;;;;;;5074972;28;20169;-66
2023/06/16 06:05:45;;;;;;;29.75;10.27;;;28.90;99.90;;;;;;5074587;28;20165;-66
2023/06/16 06:08:11;;;;;;;26.88;9.75;;;28.70;99.90;;;;;;5056014;28;20260;-66
2023/06/16 06:10:37;;;;;;;28.00;10.63;;;30.00;99.90;;;;;;5074340;28;20165;-66
2023/06/16 06:13:06;;;;;;;36.95;10.15;;;29.80;99.90;;;;;;5055295;28;20223;-66
2023/06/16 06:15:32;;;;;;;31.67;10.52;;;29.60;99.90;;;;;;5073943;28;20275;-66
2023/06/16 06:17:58;;;;;;;27.52;9.23;;;29.80;99.90;;;;;;5074097;28;20679;-67
2023/06/16 06:20:23;;;;;;;27.80;10.20;;;29.60;99.90;;;;;;5073229;28;20180;-66
2023/06/16 06:22:49;;;;;;;21.80;8.90;;;30.30;99.90;;;;;;5074237;28;20625;-68
2023/06/16 06:25:15;;;;;;;19.17;9.07;;;30.30;99.90;;;;;;5073702;28;20256;-66
2023/06/16 06:27:40;;;;;;;15.73;8.10;;;30.30;99.90;;;;;;5073728;28;20624;-66
2023/06/16 06:30:06;;;;;;;11.05;8.38;;;30.30;99.90;;;;;;5073586;28;20664;-66
2023/06/16 06:32:32;;;;;;;12.20;7.70;;;31.00;86.60;;;;;;5074128;28;20188;-67
2023/06/16 06:34:58;;;;;;;11.70;7.95;;;30.00;93.90;;;;;;5073232;28;20250;-66
2023/06/16 06:37:29;;;;;;;10.35;7.78;;;29.40;99.90;;;;;;5073233;28;20240;-66
2023/06/16 06:39:55;;;;;;;13.13;7.55;;;29.50;99.90;;;;;;5072858;28;20168;-67
2023/06/16 06:42:22;;;;;;;13.65;7.88;;;30.60;95.10;;;;;;5073617;28;20240;-66
2023/06/16 06:44:48;;;;;;;18.65;8.73;;;31.80;61.10;;;;;;5060513;28;20177;-68
2023/06/16 06:47:13;;;;;;;21.98;10.15;;;32.70;7.70;;;;;;5055101;28;20191;-68
2023/06/16 06:49:40;;;;;;;8.65;7.32;;;33.50;1.00;;;;;;5072473;28;20638;-68
2023/06/16 06:52:07;;;;;;;9.90;7.47;;;33.90;1.00;;;;;;5072868;28;20168;-67
2023/06/16 06:54:32;;;;;;;14.07;7.50;;;34.30;1.00;;;;;;5072715;28;20373;-67
2023/06/16 06:56:58;;;;;;;9.68;7.40;;;34.70;1.00;;;;;;5072247;28;20247;-66
2023/06/16 06:59:23;;;;;;;12.82;7.38;;;34.40;1.00;;;;;;5072574;28;20249;-65
2023/06/16 07:01:49;;;;;;;11.73;7.97;;;34.80;1.00;;;;;;5072706;28;20172;-67
2023/06/16 07:04:15;;;;;;;14.05;8.48;;;35.50;1.00;;;;;;5072644;28;20326;-66
2023/06/16 07:06:40;;;;;;;11.38;8.10;;;34.90;1.00;;;;;;5073386;28;20172;-66
2023/06/16 07:09:06;;;;;;;9.10;8.23;;;34.10;1.00;;;;;;5071622;28;20187;-65
2023/06/16 07:11:32;;;;;;;11.90;8.38;;;33.30;1.00;;;;;;5072880;28;20172;-66
2023/06/16 07:13:57;;;;;;;10.75;8.02;;;33.40;1.00;;;;;;5054428;28;20212;-66
2023/06/16 07:16:23;;;;;;;8.77;8.00;;;34.40;1.00;;;;;;5073298;28;20204;-69
2023/06/16 07:18:49;;;;;;;10.05;7.63;;;34.80;1.00;;;;;;5072614;28;20164;-68
2023/06/16 07:21:14;;;;;;;14.25;8.00;;;33.80;1.00;;;;;;5073010;28;20177;-65
2023/06/16 07:23:40;;;;;;;9.35;7.88;;;34.30;1.00;;;;;;5068880;28;20204;-66
2023/06/16 07:26:37;;;;;;;12.27;7.97;;;35.10;1.00;;;;;;5061027;28;20264;-68
2023/06/16 07:29:03;;;;;;;10.05;7.57;;;35.50;1.00;;;;;;5031497;28;20586;-67
2023/06/16 07:31:28;;;;;;;9.30;7.10;;;36.70;1.00;;;;;;5052353;28;20267;-66
2023/06/16 07:33:55;;;;;;;15.32;7.50;;;36.80;1.00;;;;;;5051476;28;20212;-68
2023/06/16 07:36:21;;;;;;;8.88;7.97;;;36.70;1.00;;;;;;5056894;28;20211;-68
2023/06/16 07:38:46;;;;;;;8.25;7.45;;;37.10;1.00;;;;;;5072942;28;20685;-66
2023/06/16 07:41:12;;;;;;;8.68;7.72;;;37.20;1.00;;;;;;5069824;28;20603;-66
2023/06/16 07:43:37;;;;;;;9.48;7.80;;;36.10;1.00;;;;;;5071850;28;20204;-66
2023/06/16 07:46:03;;;;;;;10.82;7.45;;;36.90;1.00;;;;;;5072224;28;20172;-67
2023/06/16 07:48:28;;;;;;;10.45;7.35;;;37.70;1.00;;;;;;5071464;28;20199;-67
2023/06/16 07:50:54;;;;;;;8.88;8.18;;;38.10;1.00;;;;;;5070924;28;20172;-66
2023/06/16 07:53:20;;;;;;;13.20;7.22;;;38.10;1.00;;;;;;5071913;28;20679;-67
2023/06/16 07:55:46;;;;;;;10.88;7.15;;;38.50;1.00;;;;;;5072303;28;20166;-66
2023/06/16 07:58:15;;;;;;;10.55;6.65;;;38.90;1.00;;;;;;5071306;28;20543;-68
2023/06/16 08:00:40;;;;;;;9.70;7.07;;;39.10;1.00;;;;;;5071184;28;20223;-68
2023/06/16 08:03:06;;;;;;;9.27;7.65;;;39.20;1.00;;;;;;5071823;28;20180;-67
2023/06/16 08:05:31;;;;;;;10.80;7.75;;;39.40;1.00;;;;;;5072682;28;20172;-67
2023/06/16 08:08:00;;;;;;;15.75;7.70;;;39.50;1.00;;;;;;5072223;28;20513;-66
2023/06/16 08:10:25;;;;;;;10.88;7.97;;;39.90;1.00;;;;;;5070541;28;20187;-67
2023/06/16 08:12:51;;;;;;;15.80;7.53;;;38.70;1.00;;;;;;5070435;28;20524;-67
2023/06/16 08:15:17;;;;;;;12.50;8.00;;;37.30;1.00;;;;;;5071185;28;20286;-68
2023/06/16 08:17:43;;;;;;;11.82;8.27;;;35.70;1.00;;;;;;5071323;28;20245;-67
2023/06/16 08:20:10;;;;;;;17.10;7.88;;;35.40;1.00;;;;;;5072000;28;20266;-67
2023/06/16 08:22:36;;;;;;;15.82;7.43;;;36.20;1.00;;;;;;5071512;28;20180;-68
2023/06/16 08:25:02;;;;;;;12.20;7.18;;;37.40;1.00;;;;;;5071986;28;20211;-68
2023/06/16 08:27:28;;;;;;;12.75;8.00;;;38.30;1.00;;;;;;5071095;28;20624;-68
2023/06/16 08:29:53;;;;;;;11.15;7.38;;;39.30;1.00;;;;;;5072262;28;20199;-68
2023/06/16 08:32:19;;;;;;;15.27;8.02;;;39.60;1.00;;;;;;5071538;28;20192;-67
2023/06/16 08:34:45;;;;;;;17.90;8.50;;;38.60;1.00;;;;;;5071727;28;20258;-67
2023/06/16 08:37:11;;;;;;;48.22;9.23;;;38.30;1.00;;;;;;5071917;28;20216;-67
2023/06/16 08:39:36;;;;;;;12.48;7.20;;;38.70;1.00;;;;;;5071617;28;20506;-67
2023/06/16 08:42:03;;;;;;;13.93;7.72;;;39.20;1.00;;;;;;5071509;28;20164;-69
2023/06/16 08:44:32;;;;;;;15.00;10.82;;;40.00;1.00;;;;;;5070640;28;20199;-68
2023/06/16 08:46:58;;;;;;;14.55;8.10;;;40.30;1.00;;;;;;5072200;28;20176;-65
2023/06/16 08:49:25;;;;;;;14.52;9.02;;;38.90;1.00;;;;;;5070168;28;20164;-68
2023/06/16 08:51:52;;;;;;;15.50;8.82;;;38.50;1.00;;;;;;5071797;28;20161;-68
2023/06/16 08:54:25;;;;;;;32.33;9.65;;;37.90;1.00;;;;;;5072223;28;20172;-67
2023/06/16 08:56:51;;;;;;;18.70;9.00;;;38.00;1.00;;;;;;5071334;28;20205;-67
2023/06/16 08:59:18;;;;;;;13.45;8.65;;;37.00;1.00;;;;;;5069625;28;20183;-68
2023/06/16 09:01:46;;;;;;;15.13;7.90;;;35.60;1.00;;;;;;5071895;28;20164;-66
2023/06/16 09:04:13;;;;;;;15.48;8.07;;;35.90;1.00;;;;;;5071686;28;20300;-67
2023/06/16 09:06:48;;;;;;;10.70;8.38;;;36.10;1.00;;;;;;5072163;28;20233;-67
2023/06/16 09:09:16;;;;;;;13.07;7.80;;;35.60;1.00;;;;;;5071526;28;20171;-67
2023/06/16 09:11:42;;;;;;;17.42;8.05;;;34.90;1.00;;;;;;5072981;28;20172;-68
2023/06/16 09:14:14;;;;;;;13.20;7.53;;;35.40;1.00;;;;;;5075681;28;20231;-67
2023/06/16 09:16:40;;;;;;;14.18;7.32;;;36.30;1.00;;;;;;5074091;28;20183;-66
2023/06/16 09:19:08;;;;;;;16.85;8.27;;;37.10;1.00;;;;;;5074840;28;20172;-67
2023/06/16 09:21:34;;;;;;;11.32;8.23;;;37.00;1.00;;;;;;5074670;28;20245;-66
2023/06/16 09:24:01;;;;;;;12.60;7.97;;;34.40;1.00;;;;;;5074537;28;20212;-66
2023/06/16 09:26:33;;;;;;;17.40;6.45;;;33.70;1.00;;;;;;5074306;28;20164;-66
2023/06/16 09:28:59;;;;;;;10.23;6.47;;;34.10;1.00;;;;;;5073900;28;20164;-67
2023/06/16 09:31:27;;;;;;;12.25;6.75;;;34.80;1.00;;;;;;5074645;28;20598;-65
2023/06/16 09:33:52;;;;;;;8.00;5.45;;;35.10;1.00;;;;;;5075301;28;20164;-65
2023/06/16 09:36:28;;;;;;;7.07;5.38;;;35.50;1.00;;;;;;5074675;28;20583;-69
2023/06/16 09:38:53;;;;;;;8.13;6.03;;;36.40;1.00;;;;;;5075012;28;20597;-66
2023/06/16 09:41:20;;;;;;;9.18;5.80;;;36.90;1.00;;;;;;5073114;28;20282;-66
2023/06/16 09:43:46;;;;;;;10.60;5.57;;;37.10;1.00;;;;;;5074353;28;20215;-66
2023/06/16 09:46:12;;;;;;;7.18;5.22;;;37.50;1.00;;;;;;5074499;28;20168;-67
2023/06/16 09:49:05;;;;;;;8.10;4.68;;;38.60;1.00;;;;;;5073195;28;20175;-67
2023/06/16 09:51:30;;;;;;;10.73;5.72;;;38.00;1.00;;;;;;5072172;28;20180;-66
2023/06/16 09:53:56;;;;;;;9.40;5.78;;;37.70;1.00;;;;;;5074811;28;20176;-68
2023/06/16 09:56:22;;;;;;;10.90;5.55;;;37.80;1.00;;;;;;5073201;28;20168;-68
2023/06/16 09:58:48;;;;;;;9.98;5.25;;;37.80;1.00;;;;;;5074547;28;20688;-69
2023/06/16 10:01:16;;;;;;;6.05;4.20;;;37.00;1.00;;;;;;5074458;28;20239;-69
2023/06/16 10:03:43;;;;;;;6.72;4.35;;;35.60;1.00;;;;;;5074440;28;20253;-67
2023/06/16 10:06:20;;;;;;;7.97;4.55;;;36.00;1.00;;;;;;5074149;28;20256;-67
2023/06/16 10:08:49;;;;;;;8.02;4.53;;;35.30;1.00;;;;;;5074640;28;20170;-67
2023/06/16 10:11:16;;;;;;;215.85;28.55;;;36.40;1.00;;;;;;5072901;28;20202;-68
2023/06/16 10:13:50;;;;;;;37.08;9.18;;;36.90;1.00;;;;;;5073523;28;20227;-68
2023/06/16 10:16:17;;;;;;;8.60;5.30;;;36.60;1.00;;;;;;5074199;28;20176;-68
2023/06/16 10:18:43;;;;;;;7.82;4.35;;;36.10;1.00;;;;;;5074106;28;20233;-67
2023/06/16 10:21:10;;;;;;;6.78;4.60;;;35.60;1.00;;;;;;5072678;28;20172;-67
2023/06/16 10:23:36;;;;;;;6.85;4.70;;;35.50;1.00;;;;;;5072041;28;20547;-67
2023/06/16 10:26:04;;;;;;;6.22;4.38;;;35.00;1.00;;;;;;5073354;28;20172;-67
2023/06/16 10:28:32;;;;;;;8.52;4.57;;;34.40;1.00;;;;;;5072947;28;20225;-67
2023/06/16 10:30:59;;;;;;;8.40;4.55;;;34.40;1.00;;;;;;5073704;28;20208;-66
2023/06/16 10:33:26;;;;;;;4.18;3.78;;;34.80;1.00;;;;;;5074303;28;20205;-68
2023/06/16 10:36:01;;;;;;;5.57;4.20;;;34.60;1.00;;;;;;5073772;28;20674;-66
2023/06/16 10:38:35;;;;;;;3.72;3.40;;;35.30;1.00;;;;;;5073590;28;20260;-67
2023/06/16 10:41:06;;;;;;;4.10;3.42;;;35.60;1.00;;;;;;5072756;28;20175;-66
2023/06/16 10:43:32;;;;;;;4.32;3.92;;;36.50;1.00;;;;;;5072959;28;20192;-66
2023/06/16 10:46:17;;;;;;;4.78;3.80;;;37.00;1.00;;;;;;5055137;28;20180;-67
2023/06/16 10:49:07;;;;;;;4.72;4.20;;;37.80;1.00;;;;;;5072874;28;20220;-67
2023/06/16 10:51:43;;;;;;;6.07;4.13;;;37.30;1.00;;;;;;5073696;28;20176;-65
2023/06/16 10:54:09;;;;;;;5.95;4.20;;;37.50;1.00;;;;;;5072823;28;20191;-65
2023/06/16 10:57:00;;;;;;;5.10;4.30;;;37.80;1.00;;;;;;5055099;28;20179;-66
2023/06/16 10:59:25;;;;;;;7.57;4.25;;;37.00;1.00;;;;;;5072452;28;20225;-68
2023/06/16 11:01:56;;;;;;;5.93;4.43;;;36.90;1.00;;;;;;5073010;28;20182;-68
2023/06/16 11:04:22;;;;;;;5.68;4.25;;;37.90;1.00;;;;;;5072308;28;20223;-68
2023/06/16 11:07:08;;;;;;;5.50;4.13;;;37.00;1.00;;;;;;5071766;28;20218;-68
2023/06/16 11:09:35;;;;;;;5.65;4.57;;;36.80;1.00;;;;;;5071446;28;20203;-68
2023/06/16 11:12:02;;;;;;;5.10;4.40;;;37.20;1.00;;;;;;5073173;28;20602;-68
2023/06/16 11:14:28;;;;;;;5.95;3.85;;;36.30;1.00;;;;;;5073301;28;20631;-67
2023/06/16 11:16:55;;;;;;;6.15;5.30;;;36.10;1.00;;;;;;5072565;28;20251;-67
2023/06/16 11:19:20;;;;;;;4.80;4.40;;;36.00;1.00;;;;;;5054723;28;20176;-68
2023/06/16 11:21:47;;;;;;;7.60;4.63;;;35.00;1.00;;;;;;5073181;28;20168;-68
2023/06/16 11:24:13;;;;;;;4.90;4.05;;;35.50;1.00;;;;;;5054197;28;20239;-67
2023/06/16 11:26:40;;;;;;;4.60;4.20;;;34.10;1.00;;;;;;5072629;28;20200;-67
2023/06/16 11:29:06;;;;;;;6.50;4.63;;;32.80;1.00;;;;;;5072959;28;20168;-67
2023/06/16 11:31:35;;;;;;;5.45;4.30;;;32.90;1.00;;;;;;5072649;28;20188;-67
2023/06/16 11:34:02;;;;;;;7.72;3.97;;;32.30;1.00;;;;;;5072888;28;20185;-67
2023/06/16 11:36:27;;;;;;;5.72;4.00;;;33.20;1.00;;;;;;5072219;28;20223;-68
2023/06/16 11:38:57;;;;;;;5.47;3.90;;;34.20;1.00;;;;;;5072611;28;20179;-66
2023/06/16 11:41:27;;;;;;;5.95;3.83;;;34.70;1.00;;;;;;5054781;28;20221;-68
2023/06/16 11:43:53;;;;;;;4.40;4.10;;;34.70;1.00;;;;;;5072947;28;20666;-67
2023/06/16 11:46:24;;;;;;;5.15;4.15;;;34.60;1.00;;;;;;5072490;28;20172;-67
2023/06/16 11:48:51;;;;;;;8.30;4.13;;;34.00;1.00;;;;;;5072251;28;20693;-67
2023/06/16 11:51:16;;;;;;;5.55;4.03;;;33.00;1.00;;;;;;5072863;28;20176;-66
2023/06/16 11:53:43;;;;;;;5.95;3.63;;;33.10;1.00;;;;;;5072609;28;20230;-66
2023/06/16 11:56:13;;;;;;;5.28;3.95;;;33.50;1.00;;;;;;5072281;28;20240;-67
2023/06/16 11:58:42;;;;;;;7.10;4.20;;;33.80;1.00;;;;;;5072137;28;20184;-66
2023/06/16 12:01:08;;;;;;;4.63;4.20;;;33.20;1.00;;;;;;5072246;28;20289;-66
2023/06/16 12:03:37;;;;;;;5.88;4.13;;;32.60;1.00;;;;;;5054068;28;20201;-67
2023/06/16 12:06:03;;;;;;;8.13;4.85;;;32.70;1.00;;;;;;5072477;28;20160;-67
2023/06/16 12:08:35;;;;;;;4.38;3.60;;;32.90;1.00;;;;;;5071326;28;20222;-66
2023/06/16 12:11:01;;;;;;;4.15;3.67;;;32.80;1.00;;;;;;5071362;28;20175;-67
2023/06/16 12:13:29;;;;;;;9.95;4.03;;;32.40;1.00;;;;;;5071362;28;20255;-67
2023/06/16 12:15:55;;;;;;;3.97;3.67;;;32.60;1.00;;;;;;5070513;28;20180;-66
2023/06/16 12:18:20;;;;;;;7.22;3.63;;;32.80;1.00;;;;;;5072265;28;20168;-66
2023/06/16 12:20:46;;;;;;;4.97;3.70;;;32.90;1.00;;;;;;5071672;28;20168;-66
2023/06/16 12:23:11;;;;;;;3.90;3.60;;;32.70;1.00;;;;;;5071509;28;20520;-67
2023/06/16 12:25:37;;;;;;;5.00;4.25;;;32.70;1.00;;;;;;5071776;28;20267;-66
2023/06/16 12:28:03;;;;;;;4.22;3.80;;;32.40;1.00;;;;;;5072609;28;20248;-66
2023/06/16 12:30:34;;;;;;;6.07;4.18;;;31.90;1.00;;;;;;5071787;28;20212;-66
2023/06/16 12:33:12;;;;;;;5.10;4.10;;;31.20;1.00;;;;;;5071756;28;20203;-66
2023/06/16 12:35:41;;;;;;;8.80;4.22;;;30.60;1.00;;;;;;5071984;28;20187;-65
2023/06/16 12:38:07;;;;;;;4.93;3.53;;;30.50;1.00;;;;;;5071986;28;20229;-66
2023/06/16 12:40:33;;;;;;;5.47;4.40;;;30.60;1.00;;;;;;5071944;28;20683;-65
2023/06/16 12:43:21;;;;;;;9.15;4.30;;;30.80;1.00;;;;;;5071489;28;20577;-65
2023/06/16 12:45:47;;;;;;;4.38;3.97;;;30.90;1.00;;;;;;5072660;28;20181;-66
2023/06/16 12:48:12;;;;;;;4.72;4.30;;;30.50;1.00;;;;;;5075866;28;20173;-65
2023/06/16 12:50:38;;;;;;;4.88;4.20;;;30.60;1.00;;;;;;5075710;28;20278;-65
2023/06/16 12:53:05;;;;;;;9.40;4.90;;;30.60;1.00;;;;;;5075565;28;20230;-65